Time;durP1;ratioP1;P1;durP2;ratioP2;P2;SDS_P1;SDS_P2;PMS_P1;PMS_P2;Temp;Humidity;BMP_temperature;BMP_pressure;BME280_temperature;BME280_humidity;BME280_pressure;Samples;Min_cycle;Max_cycle;Signal;HPM_P1;HPM_P2
2023/10/09 00:02:08;;;;;;;5.80;2.00;;;;;;;-144.30;43.24;84470.19;5071094;28;20245;-56
2023/10/09 00:04:36;;;;;;;6.25;2.45;;;;;;;-144.30;43.33;84458.25;5071031;28;20196;-57
2023/10/09 00:07:07;;;;;;;10.50;2.22;;;;;;;-144.30;43.55;84474.16;5070813;28;20581;-56
2023/10/09 00:09:46;;;;;;;5.57;2.78;;;;;;;-144.30;43.70;84480.13;5070816;28;20196;-56
2023/10/09 00:12:16;;;;;;;13.38;2.78;;;;;;;-144.30;43.90;84500.00;5070854;28;20203;-56
2023/10/09 00:14:47;;;;;;;4.13;2.55;;;;;;;-144.30;44.13;84529.81;5070222;28;20251;-63
2023/10/09 00:17:18;;;;;;;11.00;2.42;;;;;;;-144.30;44.23;84529.81;5070740;28;20202;-62
2023/10/09 00:19:46;;;;;;;7.05;2.10;;;;;;;-144.30;44.33;84505.94;5070614;28;20200;-62
2023/10/09 00:22:25;;;;;;;7.65;2.50;;;;;;;-144.30;44.40;84515.88;5070370;28;20200;-62
2023/10/09 00:25:10;;;;;;;10.98;2.78;;;;;;;-144.30;44.56;84454.28;5070632;28;20187;-56
2023/10/09 00:27:41;;;;;;;6.95;2.90;;;;;;;-144.30;44.71;84529.81;5071009;28;20644;-56
2023/10/09 00:30:11;;;;;;;4.13;2.63;;;;;;;-144.30;44.90;84529.81;5070636;28;20203;-56
2023/10/09 00:32:51;;;;;;;10.68;2.58;;;;;;;-144.30;45.15;84559.63;5070379;28;20227;-56
2023/10/09 00:35:37;;;;;;;9.15;2.88;;;;;;;-144.30;45.18;84589.41;5070502;28;20202;-57
2023/10/09 00:38:15;;;;;;;3.55;2.17;;;;;;;-144.30;45.08;84557.63;5070610;28;20200;-57
2023/10/09 00:40:47;;;;;;;5.80;2.42;;;;;;;-144.30;45.12;84537.75;5070328;28;20196;-57
2023/10/09 00:43:14;;;;;;;5.90;2.53;;;;;;;-144.30;45.23;84551.66;5070383;28;20195;-57
2023/10/09 00:45:44;;;;;;;7.25;3.35;;;;;;;-144.30;45.42;84547.69;5070268;28;20202;-56
2023/10/09 00:48:14;;;;;;;7.93;2.40;;;;;;;-144.30;45.58;84575.50;5070190;28;20202;-56
2023/10/09 00:50:52;;;;;;;6.80;2.17;;;;;;;-144.30;45.63;84581.47;5070327;28;20196;-56
2023/10/09 00:53:18;;;;;;;6.68;2.22;;;;;;;-144.30;45.59;84601.34;5070092;28;20230;-55
2023/10/09 00:55:55;;;;;;;9.38;2.40;;;;;;;-144.30;45.50;84605.31;5070155;28;20245;-56
2023/10/09 00:58:27;;;;;;;3.95;2.38;;;;;;;-144.30;45.41;84613.28;5069915;28;20196;-56
2023/10/09 01:00:54;;;;;;;4.78;2.40;;;;;;;-144.30;45.29;84593.41;5070148;28;20196;-55
2023/10/09 01:03:22;;;;;;;7.03;3.05;;;;;;;-144.30;44.97;84517.88;5070066;28;20199;-56
2023/10/09 01:05:56;;;;;;;5.18;2.05;;;;;;;-144.30;44.92;84621.22;5069970;28;20739;-56
2023/10/09 01:08:30;;;;;;;2.97;1.83;;;;;;;-144.30;44.93;84611.28;5069668;28;20235;-56
2023/10/09 01:11:08;;;;;;;3.88;1.83;;;;;;;-144.30;44.60;84571.53;5070175;28;20200;-57
2023/10/09 01:13:52;;;;;;;3.15;1.60;;;;;;;-144.30;44.51;84593.41;5070122;28;20310;-57
2023/10/09 01:16:21;;;;;;;4.70;2.00;;;;;;;-144.30;44.28;84573.53;5069965;28;20962;-57
2023/10/09 01:18:50;;;;;;;4.82;1.58;;;;;;;-144.30;43.82;84623.22;5070266;28;20291;-63
2023/10/09 01:21:18;;;;;;;3.20;1.80;;;;;;;-144.30;43.48;84625.19;5070068;28;20196;-63
2023/10/09 01:24:03;;;;;;;3.45;2.22;;;;;;;-144.30;43.16;84613.28;5070162;28;20682;-62
2023/10/09 01:26:34;;;;;;;2.00;1.50;;;;;;;-144.30;42.66;84565.56;5074075;28;20257;-61
2023/10/09 01:29:01;;;;;;;2.90;1.88;;;;;;;-144.30;42.66;84563.59;5073946;28;20616;-63
2023/10/09 01:31:37;;;;;;;3.05;1.60;;;;;;;-144.30;42.59;84599.34;5074039;28;20200;-63
2023/10/09 01:34:09;;;;;;;6.95;1.90;;;;;;;-144.30;42.65;84611.28;5074082;28;20223;-62
2023/10/09 01:36:39;;;;;;;4.60;1.52;;;;;;;-144.30;42.81;84601.34;5074214;28;20201;-62
2023/10/09 01:39:10;;;;;;;1.83;1.50;;;;;;;-144.30;42.76;84603.34;5073941;28;20199;-62
2023/10/09 01:41:46;;;;;;;3.83;1.73;;;;;;;-144.30;42.85;84585.44;5073841;28;20200;-62
2023/10/09 01:44:15;;;;;;;5.45;3.20;;;;;;;-144.30;43.33;84585.44;5073955;28;20219;-62
2023/10/09 01:46:43;;;;;;;4.78;2.13;;;;;;;-144.30;44.04;84613.28;5073688;28;20246;-62
2023/10/09 01:49:17;;;;;;;2.75;1.80;;;;;;;-144.30;44.42;84643.09;5073659;28;20206;-62
2023/10/09 01:51:45;;;;;;;4.95;2.33;;;;;;;-144.30;44.74;84617.25;5073461;28;20226;-57
2023/10/09 01:54:27;;;;;;;10.20;2.83;;;;;;;-144.30;45.01;84621.22;5073682;28;20602;-56
2023/10/09 01:56:56;;;;;;;4.20;2.38;;;;;;;-144.30;45.17;84664.94;5073518;28;20200;-56
2023/10/09 01:59:23;;;;;;;6.30;2.58;;;;;;;-144.30;45.37;84684.81;5073431;28;20636;-56
2023/10/09 02:01:54;;;;;;;5.40;2.20;;;;;;;-144.30;45.43;84674.88;5073857;28;20697;-56
2023/10/09 02:04:21;;;;;;;8.50;2.65;;;;;;;-144.30;45.51;84716.63;5073297;28;20200;-56
2023/10/09 02:06:51;;;;;;;6.03;2.50;;;;;;;-144.30;45.58;84704.69;5073176;28;20196;-56
2023/10/09 02:09:26;;;;;;;7.70;2.70;;;;;;;-144.30;45.67;84696.75;5073003;28;20696;-62
2023/10/09 02:11:53;;;;;;;9.15;2.75;;;;;;;-144.30;45.35;84700.72;5073319;28;20203;-61
2023/10/09 02:14:20;;;;;;;8.85;3.05;;;;;;;-144.30;45.86;84676.88;5073067;28;20226;-56
2023/10/09 02:19:48;;;;;;;5.72;3.35;;;;;;;-144.30;46.36;84718.63;5108045;27;20584;-56
2023/10/09 02:22:16;;;;;;;4.80;2.80;;;;;;;-144.30;46.86;84720.59;5108040;28;20194;-56
2023/10/09 02:27:53;;;;;;;26.30;3.03;;;;;;;-144.30;50.34;84861.72;5096884;28;20202;-55
2023/10/09 02:30:26;;;;;;;14.98;2.33;;;;;;;-144.30;51.41;84979.00;5107719;28;20202;-56
2023/10/09 02:33:06;;;;;;;7.85;1.77;;;;;;;-144.30;51.95;84965.06;5107893;28;20770;-56
2023/10/09 02:35:38;;;;;;;15.00;2.53;;;;;;;-144.30;52.25;85014.78;5107653;28;20323;-62
2023/10/09 02:38:14;;;;;;;6.60;2.03;;;;;;;-144.30;51.06;85116.16;5107540;28;20225;-62
2023/10/09 02:41:00;;;;;;;10.87;1.97;;;;;;;-144.30;51.15;85106.22;5107953;28;20289;-62
2023/10/09 02:43:33;;;;;;;10.27;1.53;;;;;;;-144.30;51.92;85118.13;5107616;28;20199;-62
2023/10/09 02:46:12;;;;;;;6.60;1.37;;;;;;;-144.30;52.51;85155.91;5107435;28;20671;-61
2023/10/09 02:48:42;;;;;;;7.67;1.43;;;;;;;-144.30;53.03;85173.78;5107752;28;20708;-62
2023/10/09 02:51:17;;;;;;;9.47;1.47;;;;;;;-144.30;54.08;85197.66;5107654;28;20190;-61
2023/10/09 02:53:48;;;;;;;6.90;1.77;;;;;;;-144.30;53.78;85209.56;5107335;28;20198;-62
2023/10/09 02:56:23;;;;;;;10.20;1.70;;;;;;;-144.30;54.13;85239.38;5107309;28;20290;-61
2023/10/09 02:58:50;;;;;;;6.83;1.70;;;;;;;-144.30;54.11;85265.22;5107067;28;20222;-62
2023/10/09 03:01:17;;;;;;;6.63;1.57;;;;;;;-144.30;53.60;85267.22;5107100;28;20214;-61
2023/10/09 03:03:46;;;;;;;4.97;1.90;;;;;;;-144.30;53.98;85267.22;5107470;28;20202;-62
2023/10/09 03:06:19;;;;;;;15.07;1.80;;;;;;;-144.30;53.84;85306.97;5107006;28;20198;-59
2023/10/09 03:08:47;;;;;;;3.17;1.00;;;;;;;-144.30;53.63;85261.25;5107195;28;20622;-61
2023/10/09 03:11:15;;;;;;;5.90;1.43;;;;;;;-144.30;54.08;85281.13;5107694;28;20583;-62
2023/10/09 03:13:44;;;;;;;8.57;1.43;;;;;;;-144.30;53.82;85297.03;5107330;28;20199;-62
2023/10/09 03:16:19;;;;;;;4.23;1.33;;;;;;;-144.30;54.16;85275.16;5107575;28;20198;-56
2023/10/09 03:18:47;;;;;;;5.40;1.30;;;;;;;-144.30;53.62;85265.22;5106765;28;20665;-57
2023/10/09 03:21:16;;;;;;;6.53;1.57;;;;;;;-144.30;53.97;85289.09;5106816;28;20198;-56
2023/10/09 03:23:44;;;;;;;9.27;1.30;;;;;;;-144.30;53.56;85291.06;5107029;28;20195;-56
2023/10/09 03:26:12;;;;;;;4.60;1.47;;;;;;;-144.30;53.82;85308.97;5107113;28;20195;-55
2023/10/09 03:28:38;;;;;;;5.53;1.63;;;;;;;-144.30;53.82;85312.94;5106864;28;20198;-55
2023/10/09 03:31:06;;;;;;;6.27;1.20;;;;;;;-144.30;53.71;85285.09;5092896;28;20192;-55
2023/10/09 03:33:34;;;;;;;3.00;1.77;;;;;;;-144.30;53.94;85295.06;5093099;28;20204;-55
2023/10/09 03:36:01;;;;;;;5.80;1.10;;;;;;;-144.30;54.21;85322.88;5092937;28;20286;-56
2023/10/09 03:38:34;;;;;;;5.83;1.20;;;;;;;-144.30;53.98;85344.75;5093223;28;20651;-55
2023/10/09 03:41:05;;;;;;;7.87;1.27;;;;;;;-144.30;54.26;85346.72;5093269;28;20271;-55
2023/10/09 03:43:37;;;;;;;3.53;0.97;;;;;;;-144.30;53.92;85344.75;5093100;28;20663;-55
2023/10/09 03:46:05;;;;;;;5.77;1.27;;;;;;;-144.30;53.67;85342.75;5093060;28;20592;-57
2023/10/09 03:48:35;;;;;;;1.77;1.03;;;;;;;-144.30;53.96;85314.94;5092700;28;20195;-56
2023/10/09 03:51:08;;;;;;;1.60;0.97;;;;;;;-144.30;53.84;85336.78;5092725;28;20242;-55
2023/10/09 03:53:39;;;;;;;2.07;1.30;;;;;;;-144.30;53.66;85348.72;5092820;28;20195;-56
2023/10/09 03:56:11;;;;;;;5.83;1.47;;;;;;;-144.30;53.83;85374.56;5092717;28;20194;-56
2023/10/09 03:58:39;;;;;;;3.77;1.33;;;;;;;-144.30;54.54;85380.53;5092467;28;20610;-57
2023/10/09 04:01:10;;;;;;;10.03;1.20;;;;;;;-144.30;55.37;85396.44;5092641;28;20221;-57
2023/10/09 04:03:38;;;;;;;52.80;9.53;;;;;;;-144.30;57.55;85378.53;5092712;28;20197;-55
2023/10/09 04:06:09;;;;;;;40.63;7.87;;;;;;;-144.30;57.11;85342.75;5092464;28;20195;-54
2023/10/09 04:08:41;;;;;;;3.80;1.30;;;;;;;-144.30;54.63;85328.84;5092431;28;20264;-56
2023/10/09 04:11:16;;;;;;;3.57;1.30;;;;;;;-144.30;53.90;85350.72;5092307;28;20199;-55
2023/10/09 04:13:45;;;;;;;5.80;2.77;;;;;;;-144.30;54.16;85322.88;5092417;28;20192;-56
2023/10/09 04:18:56;;;;;;;4.27;1.10;;;;;;;-144.30;51.67;85368.59;5091972;28;20292;-56
2023/10/09 04:21:34;;;;;;;1.40;0.93;;;;;;;-144.30;51.38;85380.53;5092096;28;20223;-55
2023/10/09 04:26:47;;;;;;;10.57;1.13;;;;;;;-144.30;50.40;85356.69;5092226;28;20211;-56
2023/10/09 04:29:18;;;;;;;0.97;0.93;;;;;;;-144.30;50.04;85406.38;5091852;28;20191;-55
2023/10/09 04:31:51;;;;;;;8.93;1.10;;;;;;;-144.30;49.89;85406.38;5092172;28;20200;-63
2023/10/09 04:34:28;;;;;;;3.37;1.20;;;;;;;-144.30;50.07;85396.44;5092489;28;20205;-62
2023/10/09 04:37:00;;;;;;;4.03;1.40;;;;;;;-144.30;50.00;85394.44;5091083;28;20289;-63
2023/10/09 04:39:46;;;;;;;5.33;1.10;;;;;;;-144.30;49.79;85432.22;5091199;28;20242;-62
2023/10/09 04:47:57;;;;;;;3.67;1.17;;;;;;;-144.30;50.12;85444.16;5090309;28;20284;-54
2023/10/09 04:56:04;;;;;;;2.50;1.30;;;;;;;-144.30;50.07;85404.38;5091655;28;20210;-63
2023/10/09 04:58:33;;;;;;;2.47;1.03;;;;;;;-144.30;49.10;85452.09;5070774;28;20234;-63
2023/10/09 05:01:12;;;;;;;1.17;0.80;;;;;;;-144.30;49.45;85420.28;5071252;28;20199;-55
2023/10/09 05:03:53;;;;;;;5.57;1.57;;;;;;;-144.30;49.12;85452.09;5071399;28;20204;-54
2023/10/09 05:06:54;;;;;;;2.07;1.27;;;;;;;-144.30;48.88;85408.34;5071395;28;20227;-55
2023/10/09 05:09:21;;;;;;;2.93;1.27;;;;;;;-144.30;48.47;85440.16;5071028;28;20200;-57
2023/10/09 05:12:15;;;;;;;3.87;1.27;;;;;;;-144.30;48.38;85470.00;5070581;28;20667;-55
2023/10/09 05:15:04;;;;;;;1.63;1.10;;;;;;;-144.30;48.15;85487.88;5070965;28;20679;-55
2023/10/09 05:17:28;;;;;;;3.63;1.13;;;;;;;-144.30;48.01;85428.25;5086668;28;20189;-55
2023/10/09 05:20:55;;;;;;;14.43;1.20;;;;;;;-144.30;47.77;85468.00;5090126;28;20230;-55
2023/10/09 05:22:56;;;;;;;6.27;1.30;;;;;;;-144.30;47.14;85499.81;5088584;28;20203;-55
2023/10/09 05:25:53;;;;;;;1.30;1.10;;;;;;;-144.30;46.38;85410.34;5088951;28;20194;-55
2023/10/09 05:28:30;;;;;;;1.10;0.90;;;;;;;-144.30;46.38;85436.19;5090242;28;20584;-54
2023/10/09 05:31:06;;;;;;;1.77;1.20;;;;;;;-144.30;46.10;85466.00;5090794;28;20572;-55
2023/10/09 05:33:33;;;;;;;2.27;1.27;;;;;;;-144.30;46.33;85444.16;5090575;28;20321;-54
2023/10/09 05:36:35;;;;;;;6.57;1.20;;;;;;;-144.30;45.97;85475.94;5090417;28;20728;-56
2023/10/09 05:41:51;;;;;;;11.40;1.37;;;;;;;-144.30;46.31;85487.88;5090688;28;20213;-64
2023/10/09 05:49:54;;;;;;;4.60;1.47;;;;;;;-144.30;46.97;85460.03;5089580;28;20678;-56
2023/10/09 05:52:32;;;;;;;2.67;1.50;;;;;;;-144.30;46.38;85491.84;5089330;28;20202;-56
2023/10/09 06:03:25;;;;;;;1.73;1.50;;;;;;;-144.30;44.78;85678.72;5090370;28;20240;-55
2023/10/09 06:06:04;;;;;;;11.17;3.50;;;;;;;-144.30;43.75;85320.91;5090071;28;20195;-63
2023/10/09 06:11:39;;;;;;;2.57;1.47;;;;;;;-144.30;41.05;85199.63;5051656;28;20283;-62
2023/10/09 06:14:13;;;;;;;1.80;1.40;;;;;;;-144.30;40.12;85098.25;5090638;28;20272;-63
2023/10/09 06:16:43;;;;;;;4.90;1.50;;;;;;;-144.30;39.75;85173.78;5090435;28;20201;-63
2023/10/09 06:19:12;;;;;;;6.13;1.70;;;;;;;-144.30;40.14;85243.38;5089985;28;20438;-55
2023/10/09 06:21:39;;;;;;;8.67;1.40;;;;;;;-144.30;41.28;85316.91;5089680;28;20195;-55
2023/10/09 06:24:14;;;;;;;2.77;1.80;;;;;;;-144.30;41.90;85322.88;5089886;28;20206;-54
2023/10/09 06:26:51;;;;;;;2.27;2.13;;;;;;;-144.30;41.88;85316.91;5089760;28;20278;-56
2023/10/09 06:29:33;;;;;;;7.07;1.73;;;;;;;-144.30;42.58;85310.94;5089750;28;20202;-55
2023/10/09 06:34:52;;;;;;;4.33;1.67;;;;;;;-144.30;43.05;85360.66;5086178;28;20282;-55
2023/10/09 06:37:19;;;;;;;2.20;1.40;;;;;;;-144.30;43.36;85438.19;5089928;28;20460;-62
2023/10/09 06:41:17;;;;;;;5.63;1.77;;;;;;;-144.30;43.45;85384.50;5090017;28;20211;-56
2023/10/09 06:42:43;;;;;;;4.53;1.30;;;;;;;-144.30;43.25;85368.59;5089666;28;20592;-56
2023/10/09 06:45:15;;;;;;;9.87;1.87;;;;;;;-144.30;43.44;85388.47;5089738;28;20256;-55
2023/10/09 06:47:53;;;;;;;3.40;1.30;;;;;;;-144.30;43.47;85402.41;5089683;28;20282;-56
2023/10/09 06:50:42;;;;;;;2.47;1.60;;;;;;;-144.30;43.34;85340.78;5089714;28;20199;-55
2023/10/09 06:53:25;;;;;;;1.90;1.20;;;;;;;-144.30;43.26;85404.38;5089841;28;20203;-55
2023/10/09 06:55:51;;;;;;;6.87;2.10;;;;;;;-144.30;43.53;85416.31;5089614;28;20599;-55
2023/10/09 06:58:26;;;;;;;2.27;1.67;;;;;;;-144.30;43.53;85372.56;5090135;28;20200;-55
2023/10/09 07:01:19;;;;;;;1.87;1.50;;;;;;;-144.30;43.31;85376.56;5089815;28;20603;-55
2023/10/09 07:03:53;;;;;;;2.70;1.40;;;;;;;-144.30;43.09;85364.63;5089460;28;20252;-54
2023/10/09 07:06:48;;;;;;;4.37;2.30;;;;;;;-144.30;43.14;85360.66;5092860;28;20202;-56
2023/10/09 07:09:20;;;;;;;2.67;2.07;;;;;;;-144.30;42.87;85303.00;5093262;28;20221;-56
2023/10/09 07:12:03;;;;;;;4.00;2.10;;;;;;;-144.30;42.41;85336.78;5093102;28;20214;-56
2023/10/09 07:20:36;;;;;;;5.23;1.80;;;;;;;-144.30;41.63;85259.28;5070408;28;20639;-54
2023/10/09 07:23:14;;;;;;;3.43;1.80;;;;;;;-144.30;41.07;85215.53;5086194;28;20203;-55
2023/10/09 07:25:42;;;;;;;3.00;1.57;;;;;;;-144.30;40.79;85201.63;5092989;28;20206;-56
2023/10/09 07:28:36;;;;;;;4.53;1.60;;;;;;;-144.30;40.79;85213.53;5093009;28;20199;-55
2023/10/09 07:31:03;;;;;;;3.87;1.73;;;;;;;-144.30;40.53;85177.75;5093275;28;20195;-56
2023/10/09 07:33:51;;;;;;;4.20;1.23;;;;;;;-144.30;40.43;85157.88;5093011;28;20195;-55
2023/10/09 07:36:34;;;;;;;6.53;2.30;;;;;;;-144.30;40.24;85165.84;5092703;28;20200;-55
2023/10/09 07:39:01;;;;;;;2.83;1.57;;;;;;;-144.30;40.10;85058.50;5092958;28;20265;-55
2023/10/09 07:41:37;;;;;;;2.80;1.80;;;;;;;-144.30;40.07;85143.97;5093008;28;20229;-56
2023/10/09 07:44:33;;;;;;;2.43;2.20;;;;;;;-144.30;39.97;85130.06;5092842;28;20648;-57
2023/10/09 07:47:22;;;;;;;1.53;1.20;;;;;;;-144.30;39.62;85114.16;5093444;28;20221;-63
2023/10/09 07:49:53;;;;;;;5.23;3.40;;;;;;;-144.30;39.67;85116.16;5092625;28;20257;-64
2023/10/09 07:52:26;;;;;;;3.70;2.00;;;;;;;-144.30;39.89;85122.09;5093076;28;20242;-63
2023/10/09 07:55:01;;;;;;;5.00;2.30;;;;;;;-144.30;40.01;85068.44;5093005;28;20206;-63
2023/10/09 07:57:38;;;;;;;2.30;1.80;;;;;;;-144.30;39.49;85090.31;5093240;28;20270;-63
2023/10/09 08:00:36;;;;;;;5.57;1.93;;;;;;;-144.30;39.73;85074.41;5092832;28;20223;-64
2023/10/09 08:03:02;;;;;;;6.17;2.50;;;;;;;-144.30;39.55;85062.47;5092765;28;20191;-63
2023/10/09 08:05:33;;;;;;;2.60;2.00;;;;;;;-144.30;39.29;85070.44;5092567;28;20290;-56
2023/10/09 08:16:17;;;;;;;7.67;2.63;;;;;;;-144.30;39.30;85086.31;5092036;28;20304;-56
2023/10/09 08:18:44;;;;;;;3.67;1.90;;;;;;;-144.30;39.90;85082.34;5091764;28;20226;-56
2023/10/09 08:24:35;;;;;;;7.47;2.97;;;;;;;-144.30;40.28;85078.38;5091964;28;20203;-56
2023/10/09 08:27:27;;;;;;;7.13;2.07;;;;;;;-144.30;40.28;85072.41;5091825;28;20202;-56
2023/10/09 08:29:46;;;;;;;2.03;1.70;;;;;;;-144.30;40.21;85070.44;5091588;28;20195;-56
2023/10/09 08:32:31;;;;;;;2.63;1.97;;;;;;;-144.30;40.41;85126.09;5091808;28;20199;-57
2023/10/09 08:35:18;;;;;;;4.57;2.13;;;;;;;-144.30;40.69;85058.50;5091930;28;20206;-55
2023/10/09 08:37:48;;;;;;;6.07;2.43;;;;;;;-144.30;40.86;85100.25;5091674;28;20259;-56
2023/10/09 08:40:20;;;;;;;5.77;2.20;;;;;;;-144.30;41.05;85112.16;5091531;28;20754;-55
2023/10/09 08:42:54;;;;;;;4.40;2.07;;;;;;;-144.30;41.18;85122.09;5091501;28;20195;-56
2023/10/09 08:45:24;;;;;;;6.23;2.30;;;;;;;-144.30;41.66;85145.97;5091582;28;20267;-56
2023/10/09 08:47:52;;;;;;;4.33;2.20;;;;;;;-144.30;41.68;85161.88;5091445;28;20195;-55
2023/10/09 08:50:19;;;;;;;2.40;2.20;;;;;;;-144.30;41.82;85102.22;5091493;28;20191;-56
2023/10/09 08:52:48;;;;;;;2.60;1.73;;;;;;;-144.30;41.71;85104.22;5091363;28;20203;-55
2023/10/09 08:55:17;;;;;;;8.53;2.30;;;;;;;-144.30;41.77;85134.03;5091552;28;20191;-56
2023/10/09 08:57:46;;;;;;;9.40;2.60;;;;;;;-144.30;41.48;85141.97;5091324;28;20206;-62
2023/10/09 09:00:21;;;;;;;5.43;2.30;;;;;;;-144.30;41.53;85106.22;5091574;28;20227;-56
2023/10/09 09:02:48;;;;;;;3.20;2.40;;;;;;;-144.30;41.59;85112.16;5091069;28;20285;-56
2023/10/09 09:05:19;;;;;;;2.97;1.97;;;;;;;-144.30;41.76;85098.25;5091064;28;20584;-56
2023/10/09 09:07:45;;;;;;;2.57;1.97;;;;;;;-144.30;41.71;85058.50;5090719;28;20210;-56
2023/10/09 09:10:20;;;;;;;3.03;2.73;;;;;;;-144.30;41.47;85072.41;5091411;28;20685;-56
2023/10/09 09:12:53;;;;;;;6.80;1.93;;;;;;;-144.30;41.65;84853.78;5091078;28;20582;-55
2023/10/09 09:15:21;;;;;;;7.57;2.57;;;;;;;-144.30;41.73;85066.44;5091240;28;20202;-64
2023/10/09 09:17:50;;;;;;;4.03;2.30;;;;;;;-144.30;42.13;85108.19;5091203;28;20258;-64
2023/10/09 09:20:27;;;;;;;3.03;2.07;;;;;;;-144.30;42.32;85026.69;5091575;28;20683;-64
2023/10/09 09:22:57;;;;;;;16.23;5.90;;;;;;;-144.30;42.83;85096.25;5091538;28;20195;-63
2023/10/09 09:25:25;;;;;;;2.83;2.17;;;;;;;-144.30;42.54;85098.25;5091245;28;20206;-64
2023/10/09 09:27:55;;;;;;;9.00;2.40;;;;;;;-144.30;42.49;85048.56;5090787;28;20290;-64
2023/10/09 09:30:31;;;;;;;7.03;2.60;;;;;;;-144.30;41.96;85062.47;5083997;28;20189;-64
2023/10/09 09:33:20;;;;;;;6.77;3.30;;;;;;;-144.30;42.11;85056.50;5087976;28;20187;-64
2023/10/09 09:35:58;;;;;;;15.77;2.93;;;;;;;-144.30;42.03;85012.78;5088940;28;20200;-64
2023/10/09 09:38:28;;;;;;;16.57;2.50;;;;;;;-144.30;41.83;85014.78;5088806;28;20252;-63
2023/10/09 09:41:02;;;;;;;14.73;2.77;;;;;;;-144.30;41.64;85038.63;5090898;28;20219;-63
2023/10/09 09:43:35;;;;;;;6.20;2.93;;;;;;;-144.30;41.70;85002.84;5091351;28;20221;-63
2023/10/09 09:46:07;;;;;;;3.47;2.80;;;;;;;-144.30;41.86;85026.69;5091063;28;20196;-64
2023/10/09 09:48:44;;;;;;;4.40;4.00;;;;;;;-144.30;41.55;84977.00;5091202;28;20187;-64
2023/10/09 09:51:13;;;;;;;4.50;3.73;;;;;;;-144.30;41.70;84988.94;5090891;28;20285;-64
2023/10/09 09:53:40;;;;;;;5.38;4.20;;;;;;;-144.30;41.54;85010.78;5091149;28;20655;-63
2023/10/09 09:56:13;;;;;;;13.27;2.65;;;;;;;-144.30;41.71;85004.84;5090907;28;20199;-64
2023/10/09 09:58:47;;;;;;;3.88;2.10;;;;;;;-144.30;41.52;84990.91;5091223;28;20199;-56
2023/10/09 10:01:22;;;;;;;6.05;2.58;;;;;;;-144.30;41.37;84975.00;5090163;28;20222;-57
2023/10/09 10:03:52;;;;;;;6.20;2.10;;;;;;;-144.30;41.36;85014.78;5090021;28;20289;-55
2023/10/09 10:06:20;;;;;;;7.37;4.00;;;;;;;-144.30;41.40;84996.88;5090078;28;20192;-55
2023/10/09 10:08:50;;;;;;;5.83;2.20;;;;;;;-144.30;41.42;84935.25;5089975;28;20203;-56
2023/10/09 10:11:44;;;;;;;3.38;2.22;;;;;;;-144.30;41.30;84982.97;5090199;28;20687;-56
2023/10/09 10:14:21;;;;;;;8.15;2.15;;;;;;;-144.30;41.47;85004.84;5090026;28;20207;-56
2023/10/09 10:17:17;;;;;;;3.60;2.55;;;;;;;-144.30;41.37;85006.81;5089940;28;20234;-57
2023/10/09 10:20:25;;;;;;;4.35;2.03;;;;;;;-144.30;41.28;85006.81;5088424;28;20225;-57
2023/10/09 10:22:52;;;;;;;8.65;2.35;;;;;;;-144.30;41.05;84971.03;5087724;28;20223;-56
2023/10/09 10:25:35;;;;;;;3.22;2.42;;;;;;;-144.30;40.98;84935.25;5085089;28;20252;-56
2023/10/09 10:28:28;;;;;;;3.25;2.22;;;;;;;-144.30;40.99;84927.31;5087073;28;20195;-57
2023/10/09 10:31:00;;;;;;;3.92;1.88;;;;;;;-144.30;40.94;84975.00;5088629;28;20195;-56
2023/10/09 10:33:28;;;;;;;4.03;1.90;;;;;;;-144.30;40.90;84943.22;5090015;28;20373;-63
2023/10/09 10:35:56;;;;;;;3.75;2.00;;;;;;;-144.30;40.86;84895.50;5090405;28;20662;-65
2023/10/09 10:38:42;;;;;;;2.35;2.15;;;;;;;-144.30;40.83;84967.06;5090564;28;20253;-64
2023/10/09 10:41:22;;;;;;;3.55;1.85;;;;;;;-144.30;40.40;84921.34;5093515;28;20223;-57
2023/10/09 10:43:54;;;;;;;3.63;1.90;;;;;;;-144.30;40.26;84871.66;5093935;28;20210;-62
2023/10/09 10:46:30;;;;;;;7.50;2.30;;;;;;;-144.30;40.61;84909.41;5094415;28;20191;-64
2023/10/09 10:49:00;;;;;;;5.20;2.10;;;;;;;-144.30;40.26;84901.47;5094434;28;20200;-64
2023/10/09 10:51:35;;;;;;;3.38;1.65;;;;;;;-144.30;40.33;84915.38;5094188;28;20199;-64
2023/10/09 10:56:45;;;;;;;6.82;2.20;;;;;;;-144.30;40.11;84911.41;5094437;28;20210;-64
2023/10/09 10:59:14;;;;;;;3.80;2.17;;;;;;;-144.30;40.18;84923.34;5094206;28;20238;-64
2023/10/09 11:01:58;;;;;;;4.60;3.55;;;;;;;-144.30;40.13;84931.28;5093929;28;20310;-64
2023/10/09 11:04:38;;;;;;;2.60;2.30;;;;;;;-144.30;39.89;84923.34;5094058;28;20191;-63
2023/10/09 11:07:09;;;;;;;2.92;2.72;;;;;;;-144.30;39.97;84887.56;5094051;28;20199;-64
2023/10/09 11:09:58;;;;;;;7.05;2.45;;;;;;;-144.30;39.74;84927.31;5094086;28;20290;-65
2023/10/09 11:12:37;;;;;;;4.63;2.40;;;;;;;-144.30;39.74;84903.47;5093962;28;20199;-64
2023/10/09 11:15:08;;;;;;;6.03;2.07;;;;;;;-144.30;39.58;84901.47;5094013;28;20195;-64
2023/10/09 11:17:38;;;;;;;6.38;2.97;;;;;;;-144.30;39.66;84879.59;5093925;28;20697;-64
2023/10/09 11:23:14;;;;;;;4.80;4.15;;;;;;;-144.30;39.90;84877.63;5094015;28;20202;-65
2023/10/09 11:25:38;;;;;;;10.43;2.40;;;;;;;-144.30;39.53;84839.84;5093450;28;20195;-64
2023/10/09 11:28:29;;;;;;;7.32;2.20;;;;;;;-144.30;39.38;84871.66;5093708;28;20231;-58
2023/10/09 11:31:06;;;;;;;4.25;2.88;;;;;;;-144.30;39.13;84877.63;5092864;28;20218;-55
2023/10/09 11:33:45;;;;;;;5.50;3.08;;;;;;;-144.30;39.01;84879.59;5093594;28;20230;-66
2023/10/09 11:36:11;;;;;;;5.30;2.53;;;;;;;-144.30;38.97;84871.66;5093576;28;20191;-64
2023/10/09 11:38:39;;;;;;;3.40;2.33;;;;;;;-144.30;38.81;84855.75;5092903;28;20199;-56
2023/10/09 11:41:23;;;;;;;4.88;2.72;;;;;;;-144.30;38.35;84708.66;5092705;28;20283;-56
2023/10/09 11:43:54;;;;;;;3.70;2.17;;;;;;;-144.30;38.93;84851.78;5090561;28;20199;-55
2023/10/09 11:46:40;;;;;;;3.40;2.55;;;;;;;-144.30;38.62;84825.94;5091868;28;20195;-56
2023/10/09 11:49:34;;;;;;;6.60;2.90;;;;;;;-144.30;38.68;84867.69;5091315;28;20199;-56
2023/10/09 11:54:51;;;;;;;8.25;3.00;;;;;;;-144.30;38.68;84845.81;5091399;28;20199;-57
2023/10/09 11:57:17;;;;;;;5.10;2.50;;;;;;;-144.30;38.04;84843.84;5092753;28;20551;-57
2023/10/09 11:59:44;;;;;;;3.10;2.80;;;;;;;-144.30;37.97;84831.91;5092357;28;20202;-59
2023/10/09 12:02:12;;;;;;;4.90;2.60;;;;;;;-144.30;38.30;84851.78;5092296;28;20253;-55
2023/10/09 12:04:41;;;;;;;6.95;2.55;;;;;;;-144.30;38.12;84847.81;5092907;28;20659;-64
2023/10/09 12:07:10;;;;;;;9.38;3.65;;;;;;;-144.30;38.08;84798.13;5092852;28;20299;-56
2023/10/09 12:09:37;;;;;;;6.35;3.40;;;;;;;-144.30;37.75;84867.69;5092162;28;20187;-56
2023/10/09 12:12:05;;;;;;;6.47;2.35;;;;;;;-144.30;37.66;84810.03;5092386;28;20743;-58
2023/10/09 12:14:33;;;;;;;7.07;6.38;;;;;;;-144.30;37.47;84849.78;5092587;28;20298;-64
2023/10/09 12:17:05;;;;;;;4.93;2.15;;;;;;;-144.30;37.45;84819.97;5092619;28;20195;-64
2023/10/09 12:19:34;;;;;;;3.80;2.70;;;;;;;-144.30;37.32;84835.88;5092442;28;20234;-64
2023/10/09 12:22:04;;;;;;;3.50;2.05;;;;;;;-144.30;37.46;84823.94;5092554;28;20223;-64
2023/10/09 12:24:31;;;;;;;3.10;1.85;;;;;;;-144.30;37.47;84796.13;5093084;28;20221;-64
2023/10/09 12:26:58;;;;;;;3.65;2.05;;;;;;;-144.30;37.55;84782.22;5092806;28;20569;-64
2023/10/09 12:29:29;;;;;;;13.30;2.45;;;;;;;-144.30;37.28;84808.06;5092549;28;20610;-63
2023/10/09 12:31:59;;;;;;;7.75;2.60;;;;;;;-144.30;37.45;84802.09;5092561;28;20199;-64
2023/10/09 12:34:27;;;;;;;13.82;5.25;;;;;;;-144.30;37.54;84780.22;5092692;28;20200;-63
2023/10/09 12:36:55;;;;;;;6.70;2.90;;;;;;;-144.30;37.30;84772.28;5092815;28;20199;-63
2023/10/09 12:39:23;;;;;;;2.50;2.20;;;;;;;-144.30;37.08;84768.31;5092449;28;20195;-63
2023/10/09 12:41:53;;;;;;;7.50;2.88;;;;;;;-144.30;36.99;84792.16;5092573;28;20658;-63
2023/10/09 12:44:20;;;;;;;3.03;2.22;;;;;;;-144.30;36.87;84601.34;5092711;28;20247;-64
2023/10/09 12:46:52;;;;;;;2.05;1.88;;;;;;;-144.30;36.92;84784.19;5092313;28;20252;-64
2023/10/09 12:49:24;;;;;;;2.28;1.83;;;;;;;-144.30;37.08;84768.31;5092584;28;20582;-65
2023/10/09 12:51:52;;;;;;;1.92;1.83;;;;;;;-144.30;37.01;84774.25;5092035;28;20191;-64
2023/10/09 12:54:26;;;;;;;4.72;2.20;;;;;;;-144.30;37.04;84788.19;5092253;28;20207;-63
2023/10/09 12:56:55;;;;;;;2.13;1.90;;;;;;;-144.30;37.16;84732.53;5092442;28;20199;-64
2023/10/09 12:59:24;;;;;;;5.95;2.53;;;;;;;-144.30;37.29;84768.31;5092299;28;20195;-63